sensor_id;sensor_type;location;lat;lon;timestamp;temperature;humidity
53282;DHT22;39167;52.794;6.892;2022-11-09T00:02:05;13.10;99.90
53282;DHT22;39167;52.794;6.892;2022-11-09T00:04:30;13.10;99.90
53282;DHT22;39167;52.794;6.892;2022-11-09T00:06:56;13.10;99.90
53282;DHT22;39167;52.794;6.892;2022-11-09T00:09:22;13.10;99.90
53282;DHT22;39167;52.794;6.892;2022-11-09T00:11:47;13.10;99.90
53282;DHT22;39167;52.794;6.892;2022-11-09T00:14:15;13.10;99.90
53282;DHT22;39167;52.794;6.892;2022-11-09T00:16:40;13.10;99.90
53282;DHT22;39167;52.794;6.892;2022-11-09T00:19:06;13.10;99.90
53282;DHT22;39167;52.794;6.892;2022-11-09T00:21:32;13.10;99.90
53282;DHT22;39167;52.794;6.892;2022-11-09T00:23:57;13.10;99.90
53282;DHT22;39167;52.794;6.892;2022-11-09T00:26:23;13.10;99.90
53282;DHT22;39167;52.794;6.892;2022-11-09T00:28:49;13.10;99.90
53282;DHT22;39167;52.794;6.892;2022-11-09T00:31:17;13.10;99.90
53282;DHT22;39167;52.794;6.892;2022-11-09T00:33:53;13.10;99.90
53282;DHT22;39167;52.794;6.892;2022-11-09T00:36:21;13.10;99.90
53282;DHT22;39167;52.794;6.892;2022-11-09T00:38:49;13.10;99.90
53282;DHT22;39167;52.794;6.892;2022-11-09T00:41:16;13.10;99.90
53282;DHT22;39167;52.794;6.892;2022-11-09T00:43:41;13.10;99.90
53282;DHT22;39167;52.794;6.892;2022-11-09T00:46:07;13.00;99.90
53282;DHT22;39167;52.794;6.892;2022-11-09T00:48:34;13.10;99.90
53282;DHT22;39167;52.794;6.892;2022-11-09T00:50:59;13.10;99.90
53282;DHT22;39167;52.794;6.892;2022-11-09T00:53:26;13.10;99.90
53282;DHT22;39167;52.794;6.892;2022-11-09T00:56:03;13.10;99.90
53282;DHT22;39167;52.794;6.892;2022-11-09T00:58:31;13.10;99.90
53282;DHT22;39167;52.794;6.892;2022-11-09T01:00:58;13.10;99.90
53282;DHT22;39167;52.794;6.892;2022-11-09T01:03:25;13.10;99.90
53282;DHT22;39167;52.794;6.892;2022-11-09T01:05:51;13.10;99.90
53282;DHT22;39167;52.794;6.892;2022-11-09T01:08:18;13.10;99.90
53282;DHT22;39167;52.794;6.892;2022-11-09T01:10:45;13.10;99.90
53282;DHT22;39167;52.794;6.892;2022-11-09T01:13:13;13.10;99.90
53282;DHT22;39167;52.794;6.892;2022-11-09T01:15:51;13.10;99.90
53282;DHT22;39167;52.794;6.892;2022-11-09T01:18:18;13.10;99.90
53282;DHT22;39167;52.794;6.892;2022-11-09T01:20:47;13.10;99.90
53282;DHT22;39167;52.794;6.892;2022-11-09T01:23:14;13.20;99.90
53282;DHT22;39167;52.794;6.892;2022-11-09T01:25:40;13.10;99.90
53282;DHT22;39167;52.794;6.892;2022-11-09T01:28:07;13.10;99.90
53282;DHT22;39167;52.794;6.892;2022-11-09T01:30:38;13.10;99.90
53282;DHT22;39167;52.794;6.892;2022-11-09T01:33:05;13.20;99.90
53282;DHT22;39167;52.794;6.892;2022-11-09T01:35:33;13.20;99.90
53282;DHT22;39167;52.794;6.892;2022-11-09T01:37:59;13.20;99.90
53282;DHT22;39167;52.794;6.892;2022-11-09T01:40:26;13.20;99.90
53282;DHT22;39167;52.794;6.892;2022-11-09T01:42:52;13.20;99.90
53282;DHT22;39167;52.794;6.892;2022-11-09T01:47:59;13.20;99.90
53282;DHT22;39167;52.794;6.892;2022-11-09T01:50:37;13.20;99.90
53282;DHT22;39167;52.794;6.892;2022-11-09T01:53:09;13.10;99.90
53282;DHT22;39167;52.794;6.892;2022-11-09T01:55:35;13.10;99.90
53282;DHT22;39167;52.794;6.892;2022-11-09T01:58:07;13.10;99.90
53282;DHT22;39167;52.794;6.892;2022-11-09T02:00:36;13.10;99.90
53282;DHT22;39167;52.794;6.892;2022-11-09T02:03:11;13.10;99.90
53282;DHT22;39167;52.794;6.892;2022-11-09T02:05:39;13.10;99.90
53282;DHT22;39167;52.794;6.892;2022-11-09T02:08:06;13.10;99.90
53282;DHT22;39167;52.794;6.892;2022-11-09T02:13:02;13.00;99.90
53282;DHT22;39167;52.794;6.892;2022-11-09T02:15:29;13.00;99.90
53282;DHT22;39167;52.794;6.892;2022-11-09T02:17:55;13.10;99.90
53282;DHT22;39167;52.794;6.892;2022-11-09T02:20:22;13.00;99.90
53282;DHT22;39167;52.794;6.892;2022-11-09T02:22:48;12.90;99.90
53282;DHT22;39167;52.794;6.892;2022-11-09T02:25:14;13.00;99.90
53282;DHT22;39167;52.794;6.892;2022-11-09T02:27:42;12.90;99.90
53282;DHT22;39167;52.794;6.892;2022-11-09T02:30:08;12.90;99.90
53282;DHT22;39167;52.794;6.892;2022-11-09T02:32:35;12.90;99.90
53282;DHT22;39167;52.794;6.892;2022-11-09T02:35:01;13.00;99.90
53282;DHT22;39167;52.794;6.892;2022-11-09T02:37:32;12.90;99.90
53282;DHT22;39167;52.794;6.892;2022-11-09T02:40:00;12.90;99.90
53282;DHT22;39167;52.794;6.892;2022-11-09T02:42:27;12.90;99.90
53282;DHT22;39167;52.794;6.892;2022-11-09T02:44:58;12.90;99.90
53282;DHT22;39167;52.794;6.892;2022-11-09T02:47:24;12.90;99.90
53282;DHT22;39167;52.794;6.892;2022-11-09T02:49:50;12.80;99.90
53282;DHT22;39167;52.794;6.892;2022-11-09T02:52:16;12.80;99.90
53282;DHT22;39167;52.794;6.892;2022-11-09T02:54:42;12.80;99.90
53282;DHT22;39167;52.794;6.892;2022-11-09T02:57:08;12.80;99.90
53282;DHT22;39167;52.794;6.892;2022-11-09T02:59:33;12.80;99.90
53282;DHT22;39167;52.794;6.892;2022-11-09T03:01:59;12.70;99.90
53282;DHT22;39167;52.794;6.892;2022-11-09T03:04:25;12.70;99.90
53282;DHT22;39167;52.794;6.892;2022-11-09T03:06:51;12.80;99.90
53282;DHT22;39167;52.794;6.892;2022-11-09T03:09:17;12.80;99.90
53282;DHT22;39167;52.794;6.892;2022-11-09T03:11:43;12.70;99.90
53282;DHT22;39167;52.794;6.892;2022-11-09T03:14:09;12.70;99.90
53282;DHT22;39167;52.794;6.892;2022-11-09T03:16:35;12.70;99.90
53282;DHT22;39167;52.794;6.892;2022-11-09T03:19:01;12.70;99.90
53282;DHT22;39167;52.794;6.892;2022-11-09T03:21:28;12.60;99.90
53282;DHT22;39167;52.794;6.892;2022-11-09T03:23:54;12.70;99.90
53282;DHT22;39167;52.794;6.892;2022-11-09T03:26:20;12.70;99.90
53282;DHT22;39167;52.794;6.892;2022-11-09T03:28:46;12.70;99.90
53282;DHT22;39167;52.794;6.892;2022-11-09T03:31:12;12.70;99.90
53282;DHT22;39167;52.794;6.892;2022-11-09T03:33:38;12.60;99.90
53282;DHT22;39167;52.794;6.892;2022-11-09T03:36:04;12.60;99.90
53282;DHT22;39167;52.794;6.892;2022-11-09T03:38:30;12.60;99.90
53282;DHT22;39167;52.794;6.892;2022-11-09T03:40:58;12.60;99.90
53282;DHT22;39167;52.794;6.892;2022-11-09T03:43:24;12.60;99.90
53282;DHT22;39167;52.794;6.892;2022-11-09T03:45:50;12.60;99.90
53282;DHT22;39167;52.794;6.892;2022-11-09T03:48:16;12.60;99.90
53282;DHT22;39167;52.794;6.892;2022-11-09T03:50:42;12.60;99.90
53282;DHT22;39167;52.794;6.892;2022-11-09T03:53:08;12.60;99.90
53282;DHT22;39167;52.794;6.892;2022-11-09T03:55:35;12.60;99.90
53282;DHT22;39167;52.794;6.892;2022-11-09T03:58:01;12.50;99.90
53282;DHT22;39167;52.794;6.892;2022-11-09T04:00:27;12.50;99.90
53282;DHT22;39167;52.794;6.892;2022-11-09T04:02:53;12.50;99.90
53282;DHT22;39167;52.794;6.892;2022-11-09T04:05:19;12.50;99.90
53282;DHT22;39167;52.794;6.892;2022-11-09T04:07:50;12.50;99.90
53282;DHT22;39167;52.794;6.892;2022-11-09T04:10:17;12.50;99.90
53282;DHT22;39167;52.794;6.892;2022-11-09T04:12:44;12.50;99.90
53282;DHT22;39167;52.794;6.892;2022-11-09T04:15:10;12.50;99.90
53282;DHT22;39167;52.794;6.892;2022-11-09T04:17:35;12.50;99.90
53282;DHT22;39167;52.794;6.892;2022-11-09T04:20:02;12.50;99.90
53282;DHT22;39167;52.794;6.892;2022-11-09T04:22:27;12.50;99.90
53282;DHT22;39167;52.794;6.892;2022-11-09T04:24:53;12.50;99.90
53282;DHT22;39167;52.794;6.892;2022-11-09T04:27:19;12.50;99.90
53282;DHT22;39167;52.794;6.892;2022-11-09T04:29:44;12.50;99.90
53282;DHT22;39167;52.794;6.892;2022-11-09T04:32:10;12.60;99.90
53282;DHT22;39167;52.794;6.892;2022-11-09T04:34:35;12.50;99.90
53282;DHT22;39167;52.794;6.892;2022-11-09T04:37:01;12.60;99.90
53282;DHT22;39167;52.794;6.892;2022-11-09T04:39:27;12.50;99.90
53282;DHT22;39167;52.794;6.892;2022-11-09T04:41:52;12.60;99.90
53282;DHT22;39167;52.794;6.892;2022-11-09T04:44:18;12.50;99.90
53282;DHT22;39167;52.794;6.892;2022-11-09T04:46:44;12.50;99.90
53282;DHT22;39167;52.794;6.892;2022-11-09T04:49:09;12.50;99.90
53282;DHT22;39167;52.794;6.892;2022-11-09T04:51:35;12.60;99.90
53282;DHT22;39167;52.794;6.892;2022-11-09T04:54:01;12.50;99.90
53282;DHT22;39167;52.794;6.892;2022-11-09T04:56:26;12.50;99.90
53282;DHT22;39167;52.794;6.892;2022-11-09T04:58:52;12.50;99.90
53282;DHT22;39167;52.794;6.892;2022-11-09T05:01:18;12.50;99.90
53282;DHT22;39167;52.794;6.892;2022-11-09T05:03:43;12.50;99.90
53282;DHT22;39167;52.794;6.892;2022-11-09T05:06:09;12.50;99.90
53282;DHT22;39167;52.794;6.892;2022-11-09T05:08:54;12.60;99.90
53282;DHT22;39167;52.794;6.892;2022-11-09T05:11:20;12.50;99.90
53282;DHT22;39167;52.794;6.892;2022-11-09T05:13:46;12.50;99.90
53282;DHT22;39167;52.794;6.892;2022-11-09T05:16:12;12.50;99.90
53282;DHT22;39167;52.794;6.892;2022-11-09T05:18:38;12.50;99.90
53282;DHT22;39167;52.794;6.892;2022-11-09T05:21:04;12.40;99.90
53282;DHT22;39167;52.794;6.892;2022-11-09T05:23:30;12.50;99.90
53282;DHT22;39167;52.794;6.892;2022-11-09T05:26:14;12.50;99.90
53282;DHT22;39167;52.794;6.892;2022-11-09T05:28:40;12.50;99.90
53282;DHT22;39167;52.794;6.892;2022-11-09T05:31:05;12.50;99.90
53282;DHT22;39167;52.794;6.892;2022-11-09T05:33:31;12.40;99.90
53282;DHT22;39167;52.794;6.892;2022-11-09T05:35:57;12.40;99.90
53282;DHT22;39167;52.794;6.892;2022-11-09T05:38:23;12.40;99.90
53282;DHT22;39167;52.794;6.892;2022-11-09T05:40:53;12.40;99.90
53282;DHT22;39167;52.794;6.892;2022-11-09T05:43:19;12.50;99.90
53282;DHT22;39167;52.794;6.892;2022-11-09T05:45:45;12.30;99.90
53282;DHT22;39167;52.794;6.892;2022-11-09T05:48:12;12.30;99.90
53282;DHT22;39167;52.794;6.892;2022-11-09T05:50:39;12.40;99.90
53282;DHT22;39167;52.794;6.892;2022-11-09T05:53:06;12.30;99.90
53282;DHT22;39167;52.794;6.892;2022-11-09T05:55:32;12.30;99.90
53282;DHT22;39167;52.794;6.892;2022-11-09T05:57:58;12.30;99.90
53282;DHT22;39167;52.794;6.892;2022-11-09T06:00:23;12.40;99.90
53282;DHT22;39167;52.794;6.892;2022-11-09T06:02:49;12.30;99.90
53282;DHT22;39167;52.794;6.892;2022-11-09T06:05:15;12.30;99.90
53282;DHT22;39167;52.794;6.892;2022-11-09T06:07:41;12.30;99.90
53282;DHT22;39167;52.794;6.892;2022-11-09T06:10:07;12.30;99.90
53282;DHT22;39167;52.794;6.892;2022-11-09T06:12:34;12.30;99.90
53282;DHT22;39167;52.794;6.892;2022-11-09T06:15:00;12.30;99.90
53282;DHT22;39167;52.794;6.892;2022-11-09T06:17:26;12.20;99.90
53282;DHT22;39167;52.794;6.892;2022-11-09T06:19:51;12.20;99.90
53282;DHT22;39167;52.794;6.892;2022-11-09T06:22:17;12.20;99.90
53282;DHT22;39167;52.794;6.892;2022-11-09T06:24:43;12.20;99.90
53282;DHT22;39167;52.794;6.892;2022-11-09T06:27:09;12.10;99.90
53282;DHT22;39167;52.794;6.892;2022-11-09T06:29:34;12.10;99.90
53282;DHT22;39167;52.794;6.892;2022-11-09T06:32:00;12.10;99.90
53282;DHT22;39167;52.794;6.892;2022-11-09T06:34:26;12.10;99.90
53282;DHT22;39167;52.794;6.892;2022-11-09T06:36:51;12.10;99.90
53282;DHT22;39167;52.794;6.892;2022-11-09T06:39:17;12.10;99.90
53282;DHT22;39167;52.794;6.892;2022-11-09T06:41:43;12.00;99.90
53282;DHT22;39167;52.794;6.892;2022-11-09T06:44:08;12.00;99.90
53282;DHT22;39167;52.794;6.892;2022-11-09T06:46:34;12.00;99.90
53282;DHT22;39167;52.794;6.892;2022-11-09T06:49:00;12.00;99.90
53282;DHT22;39167;52.794;6.892;2022-11-09T06:51:26;12.00;99.90
53282;DHT22;39167;52.794;6.892;2022-11-09T06:53:52;12.00;99.90
53282;DHT22;39167;52.794;6.892;2022-11-09T06:56:18;12.00;99.90
53282;DHT22;39167;52.794;6.892;2022-11-09T06:58:46;12.00;99.90
53282;DHT22;39167;52.794;6.892;2022-11-09T07:01:15;12.00;99.90
53282;DHT22;39167;52.794;6.892;2022-11-09T07:03:42;12.00;99.90
53282;DHT22;39167;52.794;6.892;2022-11-09T07:06:10;12.00;99.90
53282;DHT22;39167;52.794;6.892;2022-11-09T07:08:36;11.90;99.90
53282;DHT22;39167;52.794;6.892;2022-11-09T07:11:06;11.90;99.90
53282;DHT22;39167;52.794;6.892;2022-11-09T07:13:32;11.90;99.90
53282;DHT22;39167;52.794;6.892;2022-11-09T07:15:58;11.90;99.90
53282;DHT22;39167;52.794;6.892;2022-11-09T07:18:24;11.90;99.90
53282;DHT22;39167;52.794;6.892;2022-11-09T07:20:50;11.90;99.90
53282;DHT22;39167;52.794;6.892;2022-11-09T07:23:16;11.90;99.90
53282;DHT22;39167;52.794;6.892;2022-11-09T07:25:41;11.90;99.90
53282;DHT22;39167;52.794;6.892;2022-11-09T07:28:09;11.90;99.90
53282;DHT22;39167;52.794;6.892;2022-11-09T07:30:35;11.90;99.90
53282;DHT22;39167;52.794;6.892;2022-11-09T07:33:02;11.90;99.90
53282;DHT22;39167;52.794;6.892;2022-11-09T07:35:28;11.90;99.90
53282;DHT22;39167;52.794;6.892;2022-11-09T07:37:58;11.90;99.90
53282;DHT22;39167;52.794;6.892;2022-11-09T07:40:24;11.90;99.90
53282;DHT22;39167;52.794;6.892;2022-11-09T07:42:50;11.90;99.90
53282;DHT22;39167;52.794;6.892;2022-11-09T07:45:15;11.90;99.90
53282;DHT22;39167;52.794;6.892;2022-11-09T07:47:41;11.90;99.90
53282;DHT22;39167;52.794;6.892;2022-11-09T07:50:07;11.90;99.90
53282;DHT22;39167;52.794;6.892;2022-11-09T07:52:33;11.90;99.90
53282;DHT22;39167;52.794;6.892;2022-11-09T07:54:58;11.90;99.90
53282;DHT22;39167;52.794;6.892;2022-11-09T07:57:24;11.90;99.90
53282;DHT22;39167;52.794;6.892;2022-11-09T07:59:49;11.90;99.90
53282;DHT22;39167;52.794;6.892;2022-11-09T08:02:20;11.90;99.90
53282;DHT22;39167;52.794;6.892;2022-11-09T08:04:46;11.90;99.90
53282;DHT22;39167;52.794;6.892;2022-11-09T08:07:11;11.90;99.90
53282;DHT22;39167;52.794;6.892;2022-11-09T08:09:37;11.90;99.90
53282;DHT22;39167;52.794;6.892;2022-11-09T08:12:03;12.00;99.90
53282;DHT22;39167;52.794;6.892;2022-11-09T08:14:28;12.00;99.90
53282;DHT22;39167;52.794;6.892;2022-11-09T08:16:54;11.90;99.90
53282;DHT22;39167;52.794;6.892;2022-11-09T08:19:21;12.00;99.90
53282;DHT22;39167;52.794;6.892;2022-11-09T08:21:46;12.00;99.90
53282;DHT22;39167;52.794;6.892;2022-11-09T08:24:12;12.00;99.90
53282;DHT22;39167;52.794;6.892;2022-11-09T08:26:38;12.00;99.90
53282;DHT22;39167;52.794;6.892;2022-11-09T08:29:03;12.00;99.90
53282;DHT22;39167;52.794;6.892;2022-11-09T08:31:29;12.10;99.90
53282;DHT22;39167;52.794;6.892;2022-11-09T08:33:55;12.10;99.90
53282;DHT22;39167;52.794;6.892;2022-11-09T08:36:21;12.10;99.90
53282;DHT22;39167;52.794;6.892;2022-11-09T08:38:46;12.10;99.90
53282;DHT22;39167;52.794;6.892;2022-11-09T08:41:13;12.10;99.90
53282;DHT22;39167;52.794;6.892;2022-11-09T08:43:38;12.10;99.90
53282;DHT22;39167;52.794;6.892;2022-11-09T08:46:04;12.20;99.90
53282;DHT22;39167;52.794;6.892;2022-11-09T08:48:30;12.20;99.90
53282;DHT22;39167;52.794;6.892;2022-11-09T08:50:57;12.20;99.90
53282;DHT22;39167;52.794;6.892;2022-11-09T08:53:25;12.20;99.90
53282;DHT22;39167;52.794;6.892;2022-11-09T08:55:52;12.30;99.90
53282;DHT22;39167;52.794;6.892;2022-11-09T08:58:18;12.30;99.90
53282;DHT22;39167;52.794;6.892;2022-11-09T09:00:43;12.30;99.90
53282;DHT22;39167;52.794;6.892;2022-11-09T09:03:09;12.30;99.90
53282;DHT22;39167;52.794;6.892;2022-11-09T09:05:35;12.40;99.90
53282;DHT22;39167;52.794;6.892;2022-11-09T09:08:03;12.40;99.90
53282;DHT22;39167;52.794;6.892;2022-11-09T09:10:29;12.40;99.90
53282;DHT22;39167;52.794;6.892;2022-11-09T09:12:57;12.50;99.90
53282;DHT22;39167;52.794;6.892;2022-11-09T09:15:23;12.50;99.90
53282;DHT22;39167;52.794;6.892;2022-11-09T09:17:49;12.60;99.90
53282;DHT22;39167;52.794;6.892;2022-11-09T09:20:15;12.60;99.90
53282;DHT22;39167;52.794;6.892;2022-11-09T09:22:43;12.60;99.90
53282;DHT22;39167;52.794;6.892;2022-11-09T09:25:09;12.60;99.90
53282;DHT22;39167;52.794;6.892;2022-11-09T09:27:34;12.70;99.90
53282;DHT22;39167;52.794;6.892;2022-11-09T09:30:00;12.70;99.90
53282;DHT22;39167;52.794;6.892;2022-11-09T09:32:26;12.70;99.90
53282;DHT22;39167;52.794;6.892;2022-11-09T09:34:52;12.80;99.90
53282;DHT22;39167;52.794;6.892;2022-11-09T09:37:18;12.90;99.90
53282;DHT22;39167;52.794;6.892;2022-11-09T09:39:43;12.90;99.90
53282;DHT22;39167;52.794;6.892;2022-11-09T09:42:36;13.00;99.90
53282;DHT22;39167;52.794;6.892;2022-11-09T09:45:18;13.00;99.90
53282;DHT22;39167;52.794;6.892;2022-11-09T09:50:41;13.00;99.90
53282;DHT22;39167;52.794;6.892;2022-11-09T09:53:30;13.10;99.90
53282;DHT22;39167;52.794;6.892;2022-11-09T09:56:08;13.10;99.90
53282;DHT22;39167;52.794;6.892;2022-11-09T09:58:38;13.10;99.90
53282;DHT22;39167;52.794;6.892;2022-11-09T10:03:36;13.10;99.90
53282;DHT22;39167;52.794;6.892;2022-11-09T10:25:14;13.20;99.90
53282;DHT22;39167;52.794;6.892;2022-11-09T10:27:57;13.30;99.90
53282;DHT22;39167;52.794;6.892;2022-11-09T10:30:25;13.30;99.90
53282;DHT22;39167;52.794;6.892;2022-11-09T10:32:55;13.30;99.90
53282;DHT22;39167;52.794;6.892;2022-11-09T10:35:33;13.30;99.90
53282;DHT22;39167;52.794;6.892;2022-11-09T10:38:00;13.40;99.90
53282;DHT22;39167;52.794;6.892;2022-11-09T10:40:30;13.40;99.90
53282;DHT22;39167;52.794;6.892;2022-11-09T10:43:01;13.30;99.90
53282;DHT22;39167;52.794;6.892;2022-11-09T10:45:33;13.40;99.90
53282;DHT22;39167;52.794;6.892;2022-11-09T10:48:00;13.40;99.90
53282;DHT22;39167;52.794;6.892;2022-11-09T10:50:52;13.40;99.90
53282;DHT22;39167;52.794;6.892;2022-11-09T10:53:25;13.40;99.90
53282;DHT22;39167;52.794;6.892;2022-11-09T10:55:57;13.50;99.90
53282;DHT22;39167;52.794;6.892;2022-11-09T11:01:11;13.50;99.90
53282;DHT22;39167;52.794;6.892;2022-11-09T11:03:38;13.50;99.90
53282;DHT22;39167;52.794;6.892;2022-11-09T11:06:14;13.50;99.90
53282;DHT22;39167;52.794;6.892;2022-11-09T11:08:42;13.60;99.90
53282;DHT22;39167;52.794;6.892;2022-11-09T11:13:43;13.60;99.90
53282;DHT22;39167;52.794;6.892;2022-11-09T11:16:35;13.60;99.90
53282;DHT22;39167;52.794;6.892;2022-11-09T11:19:00;13.70;99.90
53282;DHT22;39167;52.794;6.892;2022-11-09T11:21:27;13.70;99.90
53282;DHT22;39167;52.794;6.892;2022-11-09T11:24:13;13.70;99.90
53282;DHT22;39167;52.794;6.892;2022-11-09T11:26:45;13.70;99.90
53282;DHT22;39167;52.794;6.892;2022-11-09T11:31:43;13.80;99.90
53282;DHT22;39167;52.794;6.892;2022-11-09T11:34:12;13.80;99.90
53282;DHT22;39167;52.794;6.892;2022-11-09T11:36:42;13.80;99.90
53282;DHT22;39167;52.794;6.892;2022-11-09T11:39:34;13.80;99.90
53282;DHT22;39167;52.794;6.892;2022-11-09T11:45:15;13.80;99.90
53282;DHT22;39167;52.794;6.892;2022-11-09T11:50:35;13.70;99.90
53282;DHT22;39167;52.794;6.892;2022-11-09T12:07:06;13.60;99.90
53282;DHT22;39167;52.794;6.892;2022-11-09T12:15:39;13.60;99.90
53282;DHT22;39167;52.794;6.892;2022-11-09T12:21:17;13.70;99.90
53282;DHT22;39167;52.794;6.892;2022-11-09T12:24:02;13.70;99.90
53282;DHT22;39167;52.794;6.892;2022-11-09T12:29:21;13.70;99.90
53282;DHT22;39167;52.794;6.892;2022-11-09T12:32:23;13.70;99.90
53282;DHT22;39167;52.794;6.892;2022-11-09T12:37:38;13.70;99.90
53282;DHT22;39167;52.794;6.892;2022-11-09T12:40:32;13.70;99.90
53282;DHT22;39167;52.794;6.892;2022-11-09T12:45:39;13.70;99.90
53282;DHT22;39167;52.794;6.892;2022-11-09T12:48:29;13.70;99.90
53282;DHT22;39167;52.794;6.892;2022-11-09T12:50:59;13.80;99.90
53282;DHT22;39167;52.794;6.892;2022-11-09T12:53:28;13.80;99.90
53282;DHT22;39167;52.794;6.892;2022-11-09T12:58:29;13.90;99.90
53282;DHT22;39167;52.794;6.892;2022-11-09T13:00:58;13.90;99.90
53282;DHT22;39167;52.794;6.892;2022-11-09T13:03:29;13.90;99.90
53282;DHT22;39167;52.794;6.892;2022-11-09T13:06:16;13.90;99.90
53282;DHT22;39167;52.794;6.892;2022-11-09T13:08:54;13.90;99.90
53282;DHT22;39167;52.794;6.892;2022-11-09T13:11:35;13.80;99.90
53282;DHT22;39167;52.794;6.892;2022-11-09T13:16:53;13.80;99.90
53282;DHT22;39167;52.794;6.892;2022-11-09T13:25:02;13.80;99.90
53282;DHT22;39167;52.794;6.892;2022-11-09T13:29:58;13.70;99.90
53282;DHT22;39167;52.794;6.892;2022-11-09T13:32:26;13.70;99.90
53282;DHT22;39167;52.794;6.892;2022-11-09T13:34:56;13.70;99.90
53282;DHT22;39167;52.794;6.892;2022-11-09T13:40:46;13.70;99.90
53282;DHT22;39167;52.794;6.892;2022-11-09T13:42:56;13.70;99.90
53282;DHT22;39167;52.794;6.892;2022-11-09T13:58:47;13.50;99.90
53282;DHT22;39167;52.794;6.892;2022-11-09T14:04:35;13.50;99.90
53282;DHT22;39167;52.794;6.892;2022-11-09T14:07:30;13.50;99.90
53282;DHT22;39167;52.794;6.892;2022-11-09T14:10:20;13.50;99.90
53282;DHT22;39167;52.794;6.892;2022-11-09T14:13:26;13.40;99.90
53282;DHT22;39167;52.794;6.892;2022-11-09T14:16:49;13.40;99.90
53282;DHT22;39167;52.794;6.892;2022-11-09T14:21:51;13.40;99.90
53282;DHT22;39167;52.794;6.892;2022-11-09T14:24:31;13.40;99.90
53282;DHT22;39167;52.794;6.892;2022-11-09T14:27:14;13.40;99.90
53282;DHT22;39167;52.794;6.892;2022-11-09T14:29:53;13.40;99.90
53282;DHT22;39167;52.794;6.892;2022-11-09T14:32:24;13.30;99.90
53282;DHT22;39167;52.794;6.892;2022-11-09T14:34:50;13.40;99.90
53282;DHT22;39167;52.794;6.892;2022-11-09T14:37:16;13.40;99.90
53282;DHT22;39167;52.794;6.892;2022-11-09T14:39:47;13.40;99.90
53282;DHT22;39167;52.794;6.892;2022-11-09T14:42:16;13.40;99.90
53282;DHT22;39167;52.794;6.892;2022-11-09T14:44:43;13.40;99.90
53282;DHT22;39167;52.794;6.892;2022-11-09T14:47:29;13.40;99.90
53282;DHT22;39167;52.794;6.892;2022-11-09T14:49:57;13.30;99.90
53282;DHT22;39167;52.794;6.892;2022-11-09T14:52:27;13.30;99.90
53282;DHT22;39167;52.794;6.892;2022-11-09T14:54:53;13.30;99.90
53282;DHT22;39167;52.794;6.892;2022-11-09T14:57:20;13.30;99.90
53282;DHT22;39167;52.794;6.892;2022-11-09T14:59:47;13.20;99.90
53282;DHT22;39167;52.794;6.892;2022-11-09T15:02:15;13.20;99.90
53282;DHT22;39167;52.794;6.892;2022-11-09T15:04:54;13.00;99.90
53282;DHT22;39167;52.794;6.892;2022-11-09T15:07:23;13.20;99.90
53282;DHT22;39167;52.794;6.892;2022-11-09T15:09:59;13.20;99.90
53282;DHT22;39167;52.794;6.892;2022-11-09T15:12:27;13.20;99.90
53282;DHT22;39167;52.794;6.892;2022-11-09T15:15:00;13.20;99.90
53282;DHT22;39167;52.794;6.892;2022-11-09T15:17:35;13.10;99.90
53282;DHT22;39167;52.794;6.892;2022-11-09T15:20:23;13.10;99.90
53282;DHT22;39167;52.794;6.892;2022-11-09T15:30:46;13.10;99.90
53282;DHT22;39167;52.794;6.892;2022-11-09T15:33:40;13.10;99.90
53282;DHT22;39167;52.794;6.892;2022-11-09T15:38:57;13.00;99.90
53282;DHT22;39167;52.794;6.892;2022-11-09T15:41:23;13.00;99.90
53282;DHT22;39167;52.794;6.892;2022-11-09T15:43:50;13.00;99.90
53282;DHT22;39167;52.794;6.892;2022-11-09T15:46:22;13.00;99.90
53282;DHT22;39167;52.794;6.892;2022-11-09T15:48:48;13.00;99.90
53282;DHT22;39167;52.794;6.892;2022-11-09T15:51:15;12.90;99.90
53282;DHT22;39167;52.794;6.892;2022-11-09T15:53:41;12.90;99.90
53282;DHT22;39167;52.794;6.892;2022-11-09T15:56:13;12.90;99.90
53282;DHT22;39167;52.794;6.892;2022-11-09T15:58:40;12.80;99.90
53282;DHT22;39167;52.794;6.892;2022-11-09T16:01:07;12.80;99.90
53282;DHT22;39167;52.794;6.892;2022-11-09T16:03:32;12.70;99.90
53282;DHT22;39167;52.794;6.892;2022-11-09T16:05:58;12.70;99.90
53282;DHT22;39167;52.794;6.892;2022-11-09T16:08:24;12.70;99.90
53282;DHT22;39167;52.794;6.892;2022-11-09T16:10:49;12.60;99.90
53282;DHT22;39167;52.794;6.892;2022-11-09T16:13:15;12.60;99.90
53282;DHT22;39167;52.794;6.892;2022-11-09T16:15:41;12.60;99.90
53282;DHT22;39167;52.794;6.892;2022-11-09T16:18:06;12.60;99.90
53282;DHT22;39167;52.794;6.892;2022-11-09T16:20:32;12.50;99.90
53282;DHT22;39167;52.794;6.892;2022-11-09T16:22:58;12.50;99.90
53282;DHT22;39167;52.794;6.892;2022-11-09T16:25:23;12.40;99.90
53282;DHT22;39167;52.794;6.892;2022-11-09T16:27:49;12.40;99.90
53282;DHT22;39167;52.794;6.892;2022-11-09T16:30:15;12.40;99.90
53282;DHT22;39167;52.794;6.892;2022-11-09T16:32:40;12.40;99.90
53282;DHT22;39167;52.794;6.892;2022-11-09T16:35:07;12.30;99.90
53282;DHT22;39167;52.794;6.892;2022-11-09T16:37:36;12.30;99.90
53282;DHT22;39167;52.794;6.892;2022-11-09T16:40:09;12.20;99.90
53282;DHT22;39167;52.794;6.892;2022-11-09T16:42:36;12.20;99.90
53282;DHT22;39167;52.794;6.892;2022-11-09T16:45:09;12.20;99.90
53282;DHT22;39167;52.794;6.892;2022-11-09T16:47:42;12.10;99.90
53282;DHT22;39167;52.794;6.892;2022-11-09T16:50:08;12.10;99.90
53282;DHT22;39167;52.794;6.892;2022-11-09T16:52:34;12.10;99.90
53282;DHT22;39167;52.794;6.892;2022-11-09T16:55:00;12.00;99.90
53282;DHT22;39167;52.794;6.892;2022-11-09T16:57:26;12.00;99.90
53282;DHT22;39167;52.794;6.892;2022-11-09T16:59:51;12.00;99.90
53282;DHT22;39167;52.794;6.892;2022-11-09T17:02:17;11.90;99.90
53282;DHT22;39167;52.794;6.892;2022-11-09T17:04:43;12.00;99.90
53282;DHT22;39167;52.794;6.892;2022-11-09T17:07:09;11.90;99.90
53282;DHT22;39167;52.794;6.892;2022-11-09T17:09:35;11.90;99.90
53282;DHT22;39167;52.794;6.892;2022-11-09T17:12:01;11.90;99.90
53282;DHT22;39167;52.794;6.892;2022-11-09T17:14:28;11.90;99.90
53282;DHT22;39167;52.794;6.892;2022-11-09T17:16:53;11.90;99.90
53282;DHT22;39167;52.794;6.892;2022-11-09T17:19:19;11.90;99.90
53282;DHT22;39167;52.794;6.892;2022-11-09T17:21:45;11.80;99.90
53282;DHT22;39167;52.794;6.892;2022-11-09T17:24:12;11.80;99.90
53282;DHT22;39167;52.794;6.892;2022-11-09T17:26:38;11.70;99.90
53282;DHT22;39167;52.794;6.892;2022-11-09T17:29:04;11.70;99.90
53282;DHT22;39167;52.794;6.892;2022-11-09T17:31:30;11.70;99.90
53282;DHT22;39167;52.794;6.892;2022-11-09T17:33:57;11.70;99.90
53282;DHT22;39167;52.794;6.892;2022-11-09T17:36:22;11.70;99.90
53282;DHT22;39167;52.794;6.892;2022-11-09T17:38:48;11.70;99.90
53282;DHT22;39167;52.794;6.892;2022-11-09T17:41:18;11.70;99.90